Terminal Aerodrome Forecast
Issued by NWS

Home | Current Version | Previous Version | Text Only | Print | Product List | Glossary On
Versions: 1 2 3 4 5 6 7 8 9 10 11 12 13 14 15 16 17 18 19 20 21 22 23
000
FTUS43 KOAX 061735 CCA
TAFBFF
TAF COR
KBFF 061735Z 0618/0718 09008KT P6SM VCSH SCT017 OVC035
     FM070200 33014KT P6SM -RA SCT020 BKN030=

USA.gov is the U.S. government's official web portal to all federal, state and local government web resources and services.